»·PEaware :: AAL74 KBFI-KPDX

AAL74 :: KBFI-KPDX

FLIGHT INFORMATION

Flight Status: Arrived
Operator:
American Airlines
More flights by this operator :: More flights under this callsign
Pilot: Mounir D. (11581)
Aircraft: MCDONNELL-DOUGLAS MD-82
(MD82)
More flights by this aircraft type
Origin: KBFI Boeing Field/King Co Intl
United States
Destination: KPDX Portland Intl
United States
More flights between these airports :: More routes between these airports
Route: +NRVNA1 NRVNA BUWZO KRATR2
File this flight plan on PilotEdge
Remarks:
Altitude:
(Current/Filed)
18,000ft
Speed:
(Current/Filed)
350kts
Departed: 02-Aug-18 09:39 PM
Arrived: 02-Aug-18 10:08 PM
Distance/Time
Traveled:
117nm/0:29
Distance/Time
To Go:
Arrived

Flight Plot

Page will automatically refresh every two minutes.

Flight plan parsing failed; only flown route is shown


Map Options




Map Legend


Flown Route
Filed Route
Departure Airport
Arrival Airport
Navaid (VOR, NDB)
Fix

Horizontal Profiles

Position Reports

Time Latitude Longitude Heading Altitude Ground
Speed
02-Aug-18 21:19 47.539948 -122.316168 179 27ft 0kts
02-Aug-18 21:20 47.539948 -122.316168 179 27ft 0kts
02-Aug-18 21:21 47.539948 -122.316168 179 27ft 0kts
02-Aug-18 21:22 47.539948 -122.316168 179 27ft 0kts
02-Aug-18 21:23 47.539948 -122.316168 179 27ft 0kts
02-Aug-18 21:24 47.539948 -122.316168 179 27ft 0kts
02-Aug-18 21:25 47.539948 -122.316168 179 27ft 0kts
02-Aug-18 21:26 47.539948 -122.316168 179 27ft 0kts
02-Aug-18 21:27 47.539948 -122.316168 179 27ft 0kts
02-Aug-18 21:28 47.539948 -122.316168 179 27ft 0kts
02-Aug-18 21:29 47.539948 -122.316168 179 27ft 0kts
02-Aug-18 21:30 47.539948 -122.316168 179 27ft 0kts
02-Aug-18 21:31 47.539948 -122.316168 179 27ft 0kts
02-Aug-18 21:32 47.539948 -122.316168 179 27ft 0kts
02-Aug-18 21:33 47.539945 -122.316168 179 27ft 0kts
02-Aug-18 21:34 47.539942 -122.316168 179 27ft 0kts
02-Aug-18 21:35 47.539939 -122.316168 179 27ft 0kts
02-Aug-18 21:36 47.539937 -122.316168 179 27ft 0kts
02-Aug-18 21:37 47.539934 -122.316168 179 27ft 0kts
02-Aug-18 21:38 47.539483 -122.313106 63 27ft 12kts
02-Aug-18 21:39 47.539826 -122.312232 59 27ft 10kts
02-Aug-18 21:40 47.533166 -122.305196 150 28ft 129kts
02-Aug-18 21:41 47.492401 -122.271161 151 2698ft 203kts
02-Aug-18 21:42 47.439490 -122.226256 149 2000ft 243kts
02-Aug-18 21:43 47.383659 -122.177460 149 2011ft 236kts
02-Aug-18 21:44 47.324198 -122.125506 149 2007ft 257kts
02-Aug-18 21:45 47.262264 -122.071662 151 2005ft 260kts
02-Aug-18 21:46 47.200329 -122.109950 231 4518ft 275kts
02-Aug-18 21:47 47.146952 -122.185295 217 8563ft 274kts
02-Aug-18 21:48 47.076839 -122.242365 206 11035ft 318kts
02-Aug-18 21:49 46.989256 -122.289480 200 13737ft 343kts
02-Aug-18 21:50 46.894603 -122.323265 190 16101ft 358kts
02-Aug-18 21:51 46.792570 -122.319075 179 18134ft 372kts
02-Aug-18 21:52 46.689517 -122.311634 182 18146ft 370kts
02-Aug-18 21:53 46.586927 -122.309541 183 18146ft 368kts
02-Aug-18 21:54 46.484430 -122.309486 183 18148ft 367kts
02-Aug-18 21:55 46.382112 -122.308777 183 18154ft 367kts
02-Aug-18 21:56 46.279845 -122.308982 184 18158ft 366kts
02-Aug-18 21:57 46.183170 -122.341480 206 17910ft 359kts
02-Aug-18 21:58 46.100305 -122.394221 206 15538ft 299kts
02-Aug-18 21:59 46.023583 -122.439219 204 13155ft 323kts
02-Aug-18 22:00 45.931516 -122.489059 198 11702ft 325kts
02-Aug-18 22:01 45.850665 -122.472019 166 9754ft 283kts
02-Aug-18 22:02 45.774770 -122.440954 167 6766ft 284kts
02-Aug-18 22:03 45.706225 -122.416174 169 5981ft 214kts
02-Aug-18 22:04 45.646559 -122.408767 208 4918ft 234kts
02-Aug-18 22:05 45.588687 -122.436478 192 3937ft 201kts
02-Aug-18 22:06 45.549026 -122.477948 258 1482ft 177kts
02-Aug-18 22:07 45.570087 -122.532297 300 554ft 149kts
02-Aug-18 22:08 45.587825 -122.577675 297 27ft 52kts
02-Aug-18 22:09 45.590254 -122.586301 276 27ft 20kts
02-Aug-18 22:10 45.590011 -122.590771 209 27ft 0kts
02-Aug-18 22:11 45.590010 -122.590772 209 27ft 0kts

Navigation Log

Ident Type
Flight plan parsing failed, navigation log unavailable